Terminal Aerodrome Forecast
Issued by NWS

Home | Current Version | Previous Version | Graphics & Text | Print | Product List | Glossary On
Versions: 1 2 3 4 5 6 7 8 9 10 11 12 13
000
FTUS43 KLSX 171700
TAFSUS
TAF
KSUS 171720Z 1718/1818 28009KT P6SM BKN250
     FM172200 29005KT P6SM SCT050 BKN120
     FM180300 VRB03KT P6SM BKN050
     FM180900 VRB04KT P6SM SCT050=

USA.gov is the U.S. government's official web portal to all federal, state and local government web resources and services.